Terminal Aerodrome Forecast
Issued by NWS

Home | Current Version | Previous Version | Text Only | Print | Product List | Glossary Off
Versions: 1 2 3 4 5 6 7 8 9 10 11 12 13 14 15 16 17 18 19 20 21 22 23 24

000
FTUS43 KTOP 201126
TAFMHK
TAF
KMHK 201126Z 2012/2112 34008KT 5SM BR OVC014
     FM201500 34011KT P6SM OVC021
     FM201700 35013KT P6SM SCT045
     FM210000 01009KT P6SM SCT100=

USA.gov is the U.S. government's official web portal to all federal, state and local government web resources and services.